FYOG

Oranjemund Airport

Oranjemund, Namibia
TAF FYOG 201400Z 2015/2100 18010KT CAVOK
Issued Valid From Valid To
Apr-20 @ 14:00 UTC
(5 hours ago)
Apr-20 @ 15:00 UTC
(4 hours ago)
Apr-21 @ 00:00 UTC
(in 5 hours)
Apr-20 @ 15:00 to Apr-21 @ 00:00
TAF FYOG 201400Z 2015/2100 18010KT CAVOK
Wind Visibility Clouds Conditions
180° at 10 knots 10,000+ meters
  • No significant clouds
TAF FYOG 201400Z 2015/2100 18010KT CAVOK
Issued Apr-20 @ 14:00 UTC
(5 hours ago)
Valid From Apr-20 @ 15:00 UTC
(4 hours ago)
Valid To Apr-21 @ 00:00 UTC
(in 5 hours)
Apr-20 @ 15:00 - Apr-21 @ 00:00
Wind Visibility
180° at 10 knots 10,000+ meters
Clouds
  • No significant clouds
Conditions